Terminal Aerodrome Forecast
Issued by NWS Mt. Holly, NJ

Home | Current Version | Previous Version | Text Only | Print | Product List | Glossary On
Versions: 1 2 3 4 5 6 7 8 9 10 11 12 13 14 15
816
FTUS41 KPHI 051555 AAA
TAFILG
TAF AMD
KILG 051555Z 0516/0612 33007KT P6SM OVC010
     FM051800 32009KT P6SM SCT015 BKN025
     FM052000 31012KT P6SM SCT040
     FM060000 32007KT P6SM FEW040
     FM060600 35006KT P6SM SCT200=

USA.gov is the U.S. government's official web portal to all federal, state and local government web resources and services.